Tiempo atmosférico en la estación meteorológica de Opakua, Araba/Álava (660 m.)



Fecha
DESCASC
Temp. máxima en grados centígrados (hora)
DESCASC
Temp. mínima en grados centígrados (hora)
DESCASC
Temp. media en grados centígrados
DESCASC
Racha de viento máxima en m/sg (hora)
DESCASC
Velocidad máxima media en intervalos de 10 minutos(hora)
DESCASC
Precipitaciones diarias en mm
DESCASC
Precipitaciones de 00:00 a 06:00 en mm
DESCASC
Precipitaciones de 06:00 a 12:00 en mm
DESCASC
Precipitaciones de 12:00 a 18:00 en mm
DESCASC
Precipitaciones de 18:00 a 24:00 en mm
DESCASC

Gráficas

Temp. máximas Temp. mínimas Temp. medias Precipitaciones Rachas de viento máximas Velocidades máximas media en intervalos de 10 minutos

Datos horarios

Fecha y hora oficial Temperatura (ºC) Velocidad del viento (km/h) Dirección del viento Racha (km/h) Dirección de racha Precipitación (mm) Presión (hPa) Tendencia (hPa) Humedad (%)
2019-04-23 23:00:00 7.3 5 Sudeste 19 Oeste 0 -- -- 84
2019-04-23 22:00:00 7.2 4 Sudoeste 20 Oeste 0 -- -- 87
2019-04-23 21:00:00 7.8 6 Sudeste 18 Sudeste 0 -- -- 84
2019-04-23 20:00:00 8.1 11 Sudeste 31 Sudoeste 0.4 -- -- 81
2019-04-23 19:00:00 9.1 6 Sudoeste 18 Sudoeste 0.2 -- -- 81
2019-04-23 18:00:00 9.3 2 Norte 8 Noroeste 0.2 -- -- 88
2019-04-23 17:00:00 8.9 4 Nordeste 13 Oeste 0.6 -- -- 93
2019-04-23 16:00:00 9 6 Oeste 34 Oeste 0.4 -- -- 91
2019-04-23 15:00:00 14.2 15 Sudeste 35 Sur 0.2 -- -- 76
2019-04-23 14:00:00 14 22 Sudeste 38 Sudeste 0 -- -- 72
2019-04-23 13:00:00 14.6 21 Sudeste 42 Sudeste 0 -- -- 65
2019-04-23 12:00:00 14 22 Sudeste 41 Sudeste 0 -- -- 72
2019-04-23 11:00:00 12.4 23 Sudeste 41 Sudeste 0 -- -- 76
2019-04-23 10:00:00 11.4 24 Sudeste 45 Este 0 -- -- 79
2019-04-23 09:00:00 10.7 28 Sudeste 48 Sudeste 0 -- -- 81
2019-04-23 08:00:00 10.4 24 Sudeste 42 Sudeste 0 -- -- 81
2019-04-23 07:00:00 10.4 19 Sudeste 45 Sudeste 0 -- -- 81
2019-04-23 06:00:00 10.2 22 Sudeste 44 Sudeste 0 -- -- 81
2019-04-23 05:00:00 10.5 19 Sudeste 48 Sudeste 0 -- -- 79
2019-04-23 04:00:00 10.8 29 Sudeste 49 Sudeste 0 -- -- 77
2019-04-23 03:00:00 11.5 28 Sudeste 48 Sudeste 0 -- -- 74
2019-04-23 02:00:00 12.3 31 Sudeste 54 Sudeste 0 -- -- 70
2019-04-23 01:00:00 12.2 30 Sudeste 48 Sudeste 0 -- -- 69
2019-04-23 00:00:00 12.8 28 Sudeste 45 Sudeste 0 -- -- 65
2019-04-22 23:00:00 13.2 30 Sudeste 46 Sudeste 0 -- -- 63
2019-04-22 22:00:00 13.7 21 Sudeste 41 Sudeste 0 -- -- 60
2019-04-22 21:00:00 14.7 23 Sudeste 44 Sudeste 0 -- -- 58
2019-04-22 20:00:00 15.6 17 Sudeste 29 Sudeste 0 -- -- 56
2019-04-22 19:00:00 16.3 18 Sudeste 33 Este 0 -- -- 54
2019-04-22 18:00:00 17.1 18 Este 36 Este 0 -- -- 50
2019-04-22 17:00:00 17.7 15 Sudeste 39 Este 0 -- -- 50
2019-04-22 16:00:00 18.4 12 Sur 32 Sur 0 -- -- 49
2019-04-22 15:00:00 17.9 13 Sur 28 Sudeste 0 -- -- 52
2019-04-22 14:00:00 16.1 8 Oeste 14 Noroeste 0 -- -- 62
2019-04-22 13:00:00 15.4 6 Noroeste 12 Oeste 0 -- -- 68
2019-04-22 12:00:00 14.4 3 Noroeste 8 Noroeste 0 -- -- 70
2019-04-22 11:00:00 12.5 3 Oeste 8 Oeste 0 -- -- 79
2019-04-22 10:00:00 10.8 2 Norte 5 Noroeste 0 -- -- 88
2019-04-22 09:00:00 8.4 0 Calma 6 Sudeste 0 -- -- 96
2019-04-22 08:00:00 6.2 5 Sudeste 6 Sudeste 0 -- -- 95
2019-04-22 07:00:00 7.3 3 Sudeste 6 Sudeste 0 -- -- 95
2019-04-22 06:00:00 7.6 2 Sudeste 4 Sudeste 0 -- -- 95
2019-04-22 05:00:00 7.6 3 Sudeste 5 Sudeste 0 -- -- 95
2019-04-22 04:00:00 7.4 3 Sudeste 5 Sudeste 0 -- -- 94
2019-04-22 03:00:00 8.4 2 Sudeste 3 Sudeste 0 -- -- 93
2019-04-22 02:00:00 8.8 0 Calma 5 Sudeste 0 -- -- 93
2019-04-22 01:00:00 9 0 Calma 4 Sudeste 0 -- -- 92
2019-04-22 00:00:00 8.9 3 Sur 6 Sudoeste 0 -- -- 90
2019-04-21 23:00:00 8.6 2 Sudeste 6 Sudeste 0 -- -- 86
2019-04-21 22:00:00 9.9 0 Calma 11 Noroeste 0 -- -- 80
2019-04-21 21:00:00 10.9 3 Nordeste 20 Este 0 -- -- 74
2019-04-21 20:00:00 12.2 7 Nordeste 15 Nordeste 0 -- -- 74
2019-04-21 19:00:00 12.8 5 Noroeste 13 Noroeste 0 -- -- 74
2019-04-21 18:00:00 13.1 5 Noroeste 8 Noroeste 0 -- -- 68
2019-04-21 17:00:00 13.2 5 Oeste 8 Sudoeste 0 -- -- 70
2019-04-21 16:00:00 13.1 4 Noroeste 7 Nordeste 0 -- -- 67
2019-04-21 15:00:00 12.8 2 Norte 10 Oeste 0 -- -- 70
2019-04-21 14:00:00 12.5 5 Oeste 11 Oeste 0 -- -- 74
2019-04-21 13:00:00 11.2 3 Oeste 7 Oeste 0 -- -- 78
2019-04-21 12:00:00 10.2 0 Calma 4 Norte 0 -- -- 82
2019-04-21 11:00:00 9.5 2 Norte 4 Sudoeste 0 -- -- 81
2019-04-21 10:00:00 9 0 Calma 5 Oeste 0 -- -- 82
2019-04-21 09:00:00 7.7 0 Calma 6 Sudoeste 0 -- -- 90
2019-04-21 08:00:00 7.4 2 Norte 21 Sudeste 0 -- -- 86
2019-04-21 07:00:00 6.8 4 Nordeste 11 Este 0 -- -- 88
2019-04-21 06:00:00 6.8 5 Este 16 Sudeste 0 -- -- 88
2019-04-21 05:00:00 7.1 6 Este 18 Sudeste 0 -- -- 87
2019-04-21 04:00:00 8.1 4 Sudeste 31 Sudeste 0 -- -- 84
2019-04-21 03:00:00 8.7 15 Sudeste 31 Sudeste 0 -- -- 86
2019-04-21 02:00:00 8.6 6 Sudeste 18 Sudeste 0 -- -- 86
2019-04-21 01:00:00 9.4 5 Sudeste 23 Sudeste 0 -- -- 84
2019-04-21 00:00:00 11.2 12 Este 28 Sudeste 0 -- -- 81
2019-04-20 23:00:00 11.6 3 Sudeste 31 Este 0.6 -- -- 89
2019-04-20 22:00:00 13.4 5 Sur 18 Sudeste 0 -- -- 74
2019-04-20 21:00:00 14.1 8 Nordeste 22 Nordeste 0 -- -- 71
2019-04-20 20:00:00 15.5 12 Nordeste 24 Nordeste 0 -- -- 66
2019-04-20 19:00:00 17 12 Nordeste 23 Norte 0 -- -- 60
2019-04-20 18:00:00 18.4 8 Norte 15 Norte 0 -- -- 61
2019-04-20 17:00:00 18.6 6 Norte 22 Norte 0 -- -- 60
2019-04-20 16:00:00 19.3 11 Norte 23 Nordeste 0 -- -- 57
2019-04-20 15:00:00 18.7 11 Norte 17 Norte 0 -- -- 57
2019-04-20 14:00:00 17.7 10 Noroeste 15 Noroeste 0 -- -- 61
2019-04-20 13:00:00 17.1 7 Sudoeste 12 Oeste 0 -- -- 63
2019-04-20 12:00:00 16.1 5 Oeste 12 Oeste 0 -- -- 68
2019-04-20 11:00:00 14.4 6 Oeste 10 Sudoeste 0 -- -- 76
2019-04-20 10:00:00 12.2 2 Norte 5 Sur 0 -- -- 75
2019-04-20 09:00:00 8.8 5 Sudoeste 6 Norte 0 -- -- 87
2019-04-20 08:00:00 6.6 6 Sudeste 13 Sudeste 0 -- -- 86
2019-04-20 07:00:00 5.5 8 Sudeste 11 Sudeste 0 -- -- 88
2019-04-20 06:00:00 6.1 8 Sudeste 12 Sudeste 0 -- -- 86
2019-04-20 05:00:00 6.4 6 Sudeste 11 Sudeste 0 -- -- 86
2019-04-20 04:00:00 7.7 4 Sudeste 12 Sudeste 0 -- -- 81
2019-04-20 03:00:00 7.2 5 Sudeste 10 Sudeste 0 -- -- 85
2019-04-20 02:00:00 8.5 4 Sudeste 13 Este 0 -- -- 80
2019-04-20 01:00:00 10 8 Este 14 Este 0 -- -- 73
2019-04-20 00:00:00 9.8 6 Este 13 Sudeste 0 -- -- 75
2019-04-19 23:00:00 10.6 10 Sudeste 13 Sudeste 0 -- -- 74
2019-04-19 22:00:00 12.1 10 Sudeste 13 Sudeste 0 -- -- 73
2019-04-19 21:00:00 15.1 3 Este 16 Sudeste 0 -- -- 67
2019-04-19 20:00:00 17.2 5 Sudoeste 18 Sudeste 0 -- -- 58
2019-04-19 19:00:00 18.5 8 Sudeste 24 Sudeste 0 -- -- 47
2019-04-19 18:00:00 19.1 8 Nordeste 25 Norte 0 -- -- 54
2019-04-19 17:00:00 18.6 9 Sudeste 24 Sudeste 0 -- -- 50
2019-04-19 16:00:00 17.2 15 Sudeste 34 Sudeste 0 -- -- 53
2019-04-19 15:00:00 16.7 17 Sudeste 37 Sudeste 0 -- -- 52
2019-04-19 14:00:00 16 21 Este 46 Sudeste 0 -- -- 49
2019-04-19 13:00:00 15.5 18 Este 44 Este 0 -- -- 48
2019-04-19 12:00:00 14.7 17 Este 40 Este 0 -- -- 53
2019-04-19 11:00:00 12.9 8 Nordeste 24 Noroeste 0 -- -- 72
2019-04-19 10:00:00 10.8 7 Norte 14 Nordeste 0.2 -- -- 85
2019-04-19 09:00:00 9.6 4 Norte 13 Este 0 -- -- 85
2019-04-19 08:00:00 9.6 12 Este 35 Este 0 -- -- 83
2019-04-19 07:00:00 9.7 18 Este 36 Este 0 -- -- 83
2019-04-19 06:00:00 9.9 14 Este 42 Este 0.2 -- -- 81
2019-04-19 05:00:00 9.9 14 Este 28 Sudeste 0.2 -- -- 82
2019-04-19 04:00:00 10.2 13 Sudeste 31 Sudeste 0 -- -- 82
2019-04-19 03:00:00 10.6 6 Este 32 Nordeste 0.2 -- -- 81
2019-04-19 02:00:00 11.3 13 Sudeste 36 Este 0.6 -- -- 79
2019-04-19 01:00:00 12.9 18 Este 40 Este 0 -- -- 67
2019-04-19 00:00:00 11.1 10 Nordeste 20 Nordeste 0 -- -- 84
2019-04-18 23:00:00 11.1 8 Nordeste 26 Este 0 -- -- 88
2019-04-18 22:00:00 11.3 11 Nordeste 30 Nordeste 0 -- -- 88
2019-04-18 21:00:00 12.1 6 Este 18 Nordeste 0 -- -- 86
2019-04-18 20:00:00 12.8 9 Nordeste 19 Nordeste 0 -- -- 83
2019-04-18 19:00:00 13.9 12 Nordeste 35 Este 0 -- -- 71
2019-04-18 18:00:00 15.4 18 Este 40 Este 0 -- -- 56
2019-04-18 17:00:00 15.9 19 Este 40 Sudeste 0 -- -- 56
2019-04-18 16:00:00 16 21 Este 39 Este 0 -- -- 56
2019-04-18 15:00:00 15.7 22 Este 39 Sudeste 0 -- -- 58
2019-04-18 14:00:00 15 18 Este 38 Sudeste 0 -- -- 62
2019-04-18 13:00:00 13.6 15 Sudeste 33 Sudeste 0 -- -- 68
2019-04-18 12:00:00 11.3 15 Sudeste 49 Sudeste 0 -- -- 82
2019-04-18 11:00:00 11 29 Sudeste 51 Sudeste 0 -- -- 85
2019-04-18 10:00:00 11 36 Sudeste 57 Sudeste 0 -- -- 80
2019-04-18 09:00:00 10.7 37 Sudeste 67 Sudeste 0 -- -- 81
2019-04-18 08:00:00 10.3 37 Sudeste 67 Sudeste 0 -- -- 81
2019-04-18 07:00:00 10.5 35 Sudeste 60 Sudeste 0 -- -- 77
2019-04-18 06:00:00 10.8 40 Sudeste 69 Sudeste 0 -- -- 73
2019-04-18 05:00:00 10.9 44 Sudeste 69 Este 0 -- -- 75
2019-04-18 04:00:00 10.9 45 Sudeste 80 Sudeste 0 -- -- 75
2019-04-18 03:00:00 11.2 51 Sudeste 79 Este 0 -- -- 71
2019-04-18 02:00:00 12 37 Sudeste 54 Este 0 -- -- 68
2019-04-18 01:00:00 13.1 26 Este 54 Sudeste 0 -- -- 70
2019-04-18 00:00:00 13.7 26 Sudeste 58 Sudeste 0 -- -- 69
2019-04-17 23:00:00 14.9 31 Sudeste 66 Sudeste 0 -- -- 61
2019-04-17 22:00:00 15.7 39 Sudeste 66 Sudeste 0 -- -- 59
2019-04-17 21:00:00 15.9 34 Este 64 Este 0 -- -- 61
2019-04-17 20:00:00 16.4 33 Sudeste 68 Sudeste 0 -- -- 60
2019-04-17 19:00:00 17 45 Sudeste 74 Sudeste 0 -- -- 60
2019-04-17 18:00:00 16.6 47 Sudeste 68 Sudeste 0 -- -- 62
2019-04-17 17:00:00 16.6 42 Sudeste 74 Sudeste 0 -- -- 62
2019-04-17 16:00:00 15.4 43 Sudeste 80 Sudeste 0 -- -- 66
2019-04-17 15:00:00 14.9 48 Sudeste 85 Sudeste 0 -- -- 68
2019-04-17 14:00:00 13.5 49 Sudeste 80 Sudeste 0 -- -- 71
2019-04-17 13:00:00 12.3 53 Sudeste 88 Sudeste 0 -- -- 74
2019-04-17 12:00:00 11.4 50 Sudeste 83 Sudeste 0 -- -- 77
2019-04-17 11:00:00 10 46 Sudeste 75 Sudeste 0 -- -- 80
2019-04-17 10:00:00 9.5 45 Sudeste 86 Sudeste 0 -- -- 81
2019-04-17 09:00:00 9.4 55 Sudeste 89 Sudeste 0 -- -- 80
2019-04-17 08:00:00 9.3 54 Sudeste 93 Sudeste 0 -- -- 80
2019-04-17 07:00:00 9.5 53 Sudeste 91 Sudeste 0 -- -- 79
2019-04-17 06:00:00 10.2 55 Sudeste 84 Sudeste 0 -- -- 74
2019-04-17 05:00:00 10.3 52 Sudeste 80 Sudeste 0 -- -- 72
2019-04-17 04:00:00 11 47 Sudeste 77 Sudeste 0 -- -- 72
2019-04-17 03:00:00 11.8 45 Sudeste 75 Sudeste 0 -- -- 72
2019-04-17 02:00:00 12.9 48 Sudeste 77 Sudeste 0 -- -- 68
2019-04-17 01:00:00 13.2 41 Sudeste 72 Sudeste 0 -- -- 68
2019-04-17 00:00:00 14.2 40 Sudeste 63 Sudeste 0 -- -- 60
2019-04-16 23:00:00 14.2 35 Sudeste 53 Sudeste 0 -- -- 59
2019-04-16 22:00:00 14.2 28 Sudeste 53 Sudeste 0 -- -- 57
2019-04-16 21:00:00 14.5 28 Sudeste 49 Sudeste 0 -- -- 59
2019-04-16 20:00:00 15.7 16 Sudeste 35 Sudeste 0 -- -- 54
2019-04-16 19:00:00 16.8 17 Sudeste 28 Sudeste 0 -- -- 51
2019-04-16 18:00:00 17.7 7 Sudeste 23 Sudeste 0 -- -- 44
2019-04-16 17:00:00 18 7 Este 23 Sudeste 0 -- -- 47
2019-04-16 16:00:00 17.4 7 Sur 17 Sudoeste 0 -- -- 53
2019-04-16 15:00:00 16.5 4 Sudoeste 10 Norte 0 -- -- 59
2019-04-16 14:00:00 15.4 6 Norte 13 Norte 0 -- -- 61
2019-04-16 13:00:00 14.1 5 Norte 13 Norte 0 -- -- 64
2019-04-16 12:00:00 13.1 4 Norte 10 Norte 0 -- -- 70
2019-04-16 11:00:00 11.9 3 Nordeste 8 Norte 0 -- -- 77
2019-04-16 10:00:00 10.2 3 Oeste 5 Sudoeste 0 -- -- 81
2019-04-16 09:00:00 7.7 2 Nordeste 10 Sudeste 0 -- -- 95
2019-04-16 08:00:00 4.1 7 Sudeste 14 Sudeste 0 -- -- 98
2019-04-16 07:00:00 4.8 9 Sudeste 12 Sudeste 0 -- -- 98
2019-04-16 06:00:00 5.9 7 Sudeste 10 Sudeste 0 -- -- 97
2019-04-16 05:00:00 6.3 6 Sudeste 8 Sudeste 0 -- -- 95
2019-04-16 04:00:00 8 4 Sudeste 12 Sudoeste 0 -- -- 95
2019-04-16 03:00:00 8.4 4 Oeste 10 Sudoeste 0 -- -- 94
2019-04-16 02:00:00 8.8 3 Sudoeste 9 Sudoeste 0 -- -- 94
2019-04-16 01:00:00 9 5 Norte 9 Nordeste 0.4 -- -- 96
2019-04-16 00:00:00 9.3 0 Calma 5 Sudeste 0.8 -- -- 95
2019-04-15 23:00:00 9.5 3 Oeste 8 Noroeste 0 -- -- 95
2019-04-15 22:00:00 9.7 4 Sudeste 19 Noroeste 0.6 -- -- 95
2019-04-15 21:00:00 9.7 11 Noroeste 24 Noroeste 0.4 -- -- 91
2019-04-15 20:00:00 10.1 8 Norte 33 Norte 4 -- -- 93
2019-04-15 19:00:00 12.6 3 Nordeste 18 Noroeste 5.8 -- -- 94
2019-04-15 18:00:00 14.6 9 Oeste 60 Sudeste 3 -- -- 81
2019-04-15 17:00:00 19.9 39 Sudeste 60 Sudeste 0 -- -- 55
2019-04-15 16:00:00 19.2 36 Sudeste 63 Sudeste 0 -- -- 60
2019-04-15 15:00:00 17.2 32 Sudeste 61 Este 0 -- -- 67
2019-04-15 14:00:00 17.4 33 Sudeste 55 Sudeste 0 -- -- 66
2019-04-15 13:00:00 17.2 37 Sudeste 66 Sudeste 0 -- -- 66
2019-04-15 12:00:00 16.6 40 Sudeste 60 Sudeste 0 -- -- 67
2019-04-15 11:00:00 15.4 38 Sudeste 61 Sudeste 0 -- -- 71
2019-04-15 10:00:00 14.4 33 Sudeste 55 Sudeste 0 -- -- 76
2019-04-15 09:00:00 15.2 32 Sudeste 50 Sudeste 0 -- -- 69
2019-04-15 08:00:00 14.4 27 Sudeste 43 Este 0 -- -- 71
2019-04-15 07:00:00 12.4 5 Norte 20 Este 0 -- -- 79
2019-04-15 06:00:00 8.8 3 Sur 8 Sudeste 0 -- -- 92
2019-04-15 05:00:00 8.7 5 Sudeste 10 Sudeste 0 -- -- 93
2019-04-15 04:00:00 10.1 4 Sudeste 10 Sudeste 0 -- -- 88
2019-04-15 03:00:00 11.4 5 Sudoeste 13 Este 0 -- -- 84
2019-04-15 02:00:00 10.6 6 Este 12 Sudeste 0 -- -- 88
2019-04-15 01:00:00 11.5 4 Sudeste 13 Sudeste 0 -- -- 84
2019-04-15 00:00:00 11.7 7 Sudeste 12 Sudeste 0 -- -- 85
2019-04-14 23:00:00 11.1 8 Sudeste 11 Sudeste 0 -- -- 85
2019-04-14 22:00:00 13.4 8 Sudeste 14 Sudeste 0 -- -- 79
2019-04-14 21:00:00 14.6 6 Sudeste 10 Sudeste 0 -- -- 74
2019-04-14 20:00:00 16.8 5 Oeste 12 Noroeste 0 -- -- 71
2019-04-14 19:00:00 17.8 9 Noroeste 20 Norte 0 -- -- 68
2019-04-14 18:00:00 18 13 Norte 21 Norte 0 -- -- 62
2019-04-14 17:00:00 17.8 8 Norte 19 Noroeste 0 -- -- 64
2019-04-14 16:00:00 18.2 11 Noroeste 23 Noroeste 0 -- -- 67
2019-04-14 15:00:00 18.5 10 Oeste 23 Oeste 0 -- -- 64
2019-04-14 14:00:00 18.1 14 Noroeste 26 Oeste 0 -- -- 63
2019-04-14 13:00:00 17.7 12 Oeste 24 Oeste 0 -- -- 61
2019-04-14 12:00:00 16.3 8 Oeste 13 Sudoeste 0 -- -- 53
2019-04-14 11:00:00 14.4 4 Sudoeste 8 Oeste 0 -- -- 56
2019-04-14 10:00:00 11.9 3 Norte 6 Oeste 0 -- -- 68
2019-04-14 09:00:00 9.7 2 Sudeste 8 Este 0 -- -- 71
2019-04-14 08:00:00 7.9 6 Sudeste 11 Sudeste 0 -- -- 75
2019-04-14 07:00:00 7.2 4 Sudeste 11 Sudeste 0 -- -- 73
2019-04-14 06:00:00 7.5 7 Sudeste 12 Sudeste 0 -- -- 74
2019-04-14 05:00:00 7.3 10 Sudeste 13 Sudeste 0 -- -- 73
2019-04-14 04:00:00 6.6 9 Sudeste 11 Sudeste 0 -- -- 76
2019-04-14 03:00:00 6.8 8 Sudeste 15 Sudeste 0 -- -- 72
2019-04-14 02:00:00 6.7 9 Sudeste 13 Sudeste 0 -- -- 73
2019-04-14 01:00:00 7.6 10 Sudeste 14 Sudeste 0 -- -- 71
2019-04-14 00:00:00 7.3 10 Sudeste 14 Sudeste 0 -- -- 69
2019-04-13 23:00:00 8.1 12 Sudeste 14 Sudeste 0 -- -- 65
2019-04-13 22:00:00 9.7 8 Sudeste 10 Sudeste 0 -- -- 57
2019-04-13 21:00:00 14.7 4 Este 16 Nordeste 0 -- -- 42
2019-04-13 20:00:00 18.5 4 Noroeste 9 Noroeste 0 -- -- 34
2019-04-13 19:00:00 19.5 4 Oeste 16 Oeste 0 -- -- 32
2019-04-13 18:00:00 19.6 6 Oeste 15 Oeste 0 -- -- 26
2019-04-13 17:00:00 18.7 8 Noroeste 13 Noroeste 0 -- -- 22
2019-04-13 16:00:00 18.6 8 Oeste 16 Oeste 0 -- -- 25
2019-04-13 15:00:00 17.6 3 Oeste 10 Oeste 0 -- -- 23
2019-04-13 14:00:00 15.8 5 Oeste 10 Noroeste 0 -- -- 26
2019-04-13 13:00:00 13.8 5 Oeste 9 Oeste 0 -- -- 32
2019-04-13 12:00:00 11.4 4 Oeste 7 Noroeste 0 -- -- 49
2019-04-13 11:00:00 9 3 Noroeste 6 Nordeste 0 -- -- 68
2019-04-13 10:00:00 6 2 Noroeste 8 Sudeste 0 -- -- 79
2019-04-13 09:00:00 1.7 6 Sudeste 9 Sudeste 0 -- -- 85
2019-04-13 08:00:00 -1.9 6 Sudeste 10 Sudeste 0 -- -- 89
2019-04-13 07:00:00 -1 4 Sudeste 14 Sudeste 0 -- -- 91
2019-04-13 06:00:00 -0.5 8 Sudeste 15 Sudeste 0 -- -- 92
2019-04-13 05:00:00 0.4 12 Sudeste 15 Sudeste 0 -- -- 93
2019-04-13 04:00:00 0.4 10 Sudeste 14 Sudeste 0 -- -- 93
2019-04-13 03:00:00 0.8 10 Sudeste 14 Sudeste 0 -- -- 93
2019-04-13 02:00:00 1 10 Sudeste 15 Sudeste 0 -- -- 94
2019-04-13 01:00:00 1.7 10 Sudeste 14 Sudeste 0 -- -- 93
2019-04-13 00:00:00 2.5 10 Sudeste 13 Sudeste 0 -- -- 93
2019-04-12 23:00:00 3.2 9 Sudeste 12 Sudeste 0 -- -- 90
2019-04-12 22:00:00 4.5 6 Sudeste 9 Sudeste 0 -- -- 86
2019-04-12 21:00:00 8.1 5 Norte 13 Norte 0 -- -- 75
2019-04-12 20:00:00 10.1 9 Nordeste 18 Nordeste 0 -- -- 69
2019-04-12 19:00:00 11.5 10 Nordeste 21 Norte 0 -- -- 62
2019-04-12 18:00:00 12.5 15 Noroeste 23 Nordeste 0 -- -- 62
2019-04-12 17:00:00 12.6 11 Norte 26 Norte 0 -- -- 62
2019-04-12 16:00:00 12.6 12 Noroeste 23 Norte 0 -- -- 65
2019-04-12 15:00:00 11.6 14 Noroeste 22 Norte 0 -- -- 65
2019-04-12 14:00:00 10.7 13 Noroeste 21 Noroeste 0 -- -- 66
2019-04-12 13:00:00 10.4 9 Nordeste 24 Nordeste 0 -- -- 70
2019-04-12 12:00:00 9.2 13 Noroeste 22 Noroeste 0 -- -- 74
2019-04-12 11:00:00 8.2 14 Noroeste 22 Noroeste 0 -- -- 82
2019-04-12 10:00:00 6.6 10 Noroeste 13 Noroeste 0 -- -- 93
2019-04-12 09:00:00 5.3 5 Oeste 12 Sudoeste 0 -- -- 97
2019-04-12 08:00:00 4.8 5 Sur 10 Sudoeste 0 -- -- 96
2019-04-12 07:00:00 5.3 5 Oeste 14 Noroeste 0 -- -- 96
2019-04-12 06:00:00 5.5 7 Oeste 12 Oeste 0 -- -- 97
2019-04-12 05:00:00 5.5 5 Oeste 10 Oeste 0 -- -- 96
2019-04-12 04:00:00 5.5 5 Oeste 11 Oeste 0 -- -- 96
2019-04-12 03:00:00 5.7 6 Oeste 14 Oeste 0 -- -- 96
2019-04-12 02:00:00 5.9 5 Oeste 11 Oeste 0 -- -- 95
2019-04-12 01:00:00 5.9 2 Oeste 10 Oeste 0 -- -- 95
2019-04-12 00:00:00 5.7 3 Sudoeste 5 Noroeste 0 -- -- 93
2019-04-11 23:00:00 5.7 4 Oeste 19 Oeste 0 -- -- 91
2019-04-11 22:00:00 6.4 12 Noroeste 16 Noroeste 0 -- -- 89
2019-04-11 21:00:00 6.7 13 Noroeste 26 Noroeste 0 -- -- 89
2019-04-11 20:00:00 7.3 17 Noroeste 24 Noroeste 0 -- -- 89
2019-04-11 19:00:00 7.9 14 Noroeste 28 Noroeste 0 -- -- 86
2019-04-11 18:00:00 -- 16 Noroeste 31 Oeste 0 -- -- --
2019-04-11 17:00:00 8.1 15 Noroeste 24 Noroeste 0.2 -- -- 92
2019-04-11 16:00:00 8 13 Noroeste 27 Noroeste 0 -- -- 94
2019-04-11 15:00:00 7.6 15 Noroeste 28 Noroeste 0.4 -- -- 94
2019-04-11 14:00:00 7.4 12 Noroeste 22 Noroeste 0 -- -- 94
2019-04-11 13:00:00 6.7 13 Noroeste 25 Oeste 0.2 -- -- 94
2019-04-11 12:00:00 7 17 Noroeste 28 Oeste 0 -- -- 91
2019-04-11 11:00:00 6.4 15 Noroeste 24 Oeste 0 -- -- 94
2019-04-11 10:00:00 5.7 10 Oeste 20 Oeste 0 -- -- 97
2019-04-11 09:00:00 5.1 8 Oeste 14 Oeste 0 -- -- 98
2019-04-11 08:00:00 4.8 8 Oeste 14 Sudoeste 0.2 -- -- 98
2019-04-11 07:00:00 5.1 5 Oeste 9 Oeste 0 -- -- 98
2019-04-11 06:00:00 4.9 4 Oeste 15 Sudoeste 0 -- -- 97
2019-04-11 05:00:00 5.2 8 Oeste 15 Sudoeste 0 -- -- 97
2019-04-11 04:00:00 5.2 4 Oeste 13 Oeste 0 -- -- 95
2019-04-11 03:00:00 5.3 4 Oeste 10 Oeste 0 -- -- 96
2019-04-11 02:00:00 5.3 5 Oeste 12 Oeste 0 -- -- 94
2019-04-11 01:00:00 5.2 4 Sudoeste 9 Sudoeste 0 -- -- 95
2019-04-11 00:00:00 4.6 3 Noroeste 10 Noroeste 0 -- -- 92
2019-04-10 23:00:00 5.8 6 Norte 14 Noroeste 0 -- -- 90
2019-04-10 22:00:00 6.2 6 Oeste 19 Oeste 0 -- -- 94
2019-04-10 21:00:00 6.9 14 Noroeste 20 Noroeste 0.4 -- -- 92
2019-04-10 20:00:00 7.4 12 Noroeste 23 Noroeste 0 -- -- 89
2019-04-10 19:00:00 7.7 15 Noroeste 26 Noroeste 0 -- -- 85
2019-04-10 18:00:00 7.8 14 Noroeste 24 Noroeste 0 -- -- 81
2019-04-10 17:00:00 8.4 14 Noroeste 24 Norte 0 -- -- 79
2019-04-10 16:00:00 8.5 15 Noroeste 29 Noroeste 0 -- -- 83
2019-04-10 15:00:00 10.2 8 Oeste 17 Oeste 0 -- -- 75
2019-04-10 14:00:00 8.1 3 Oeste 25 Nordeste 0.4 -- -- 82
2019-04-10 13:00:00 8.8 12 Norte 21 Noroeste 0 -- -- 82
2019-04-10 12:00:00 7.2 8 Oeste 14 Oeste 0 -- -- 94
2019-04-10 11:00:00 6.6 9 Oeste 12 Oeste 0 -- -- 91
2019-04-10 10:00:00 5.2 0 Calma 5 Oeste 0 -- -- 97
2019-04-10 09:00:00 4.1 0 Calma 6 Sudeste 0 -- -- 99
2019-04-10 08:00:00 2.1 6 Sudeste 11 Sudeste 0 -- -- 97
2019-04-10 07:00:00 2.7 8 Sudeste 12 Sudeste 0 -- -- 97
2019-04-10 06:00:00 3 7 Sudeste 11 Sudeste 0 -- -- 97
2019-04-10 05:00:00 2.7 9 Sudeste 14 Sudeste 0 -- -- 97
2019-04-10 04:00:00 2.3 10 Sudeste 12 Sudeste 0 -- -- 96
2019-04-10 03:00:00 3.4 7 Sudeste 11 Sudeste 0 -- -- 98
2019-04-10 02:00:00 2.8 5 Sudeste 11 Sudeste 0 -- -- 96
2019-04-10 01:00:00 3.5 6 Sudeste 9 Sudeste 0 -- -- 95
2019-04-10 00:00:00 5 2 Este 8 Noroeste 0 -- -- 95
2019-04-09 23:00:00 5.6 9 Noroeste 20 Sudeste 0.2 -- -- 93
2019-04-09 22:00:00 5.5 4 Sur 16 Oeste 1.2 -- -- 95
2019-04-09 21:00:00 6 7 Oeste 22 Norte 0.2 -- -- 92
2019-04-09 20:00:00 7.2 12 Noroeste 23 Noroeste 0 -- -- 84
2019-04-09 19:00:00 8 13 Noroeste 26 Oeste 0 -- -- 83
2019-04-09 18:00:00 9.6 17 Noroeste 37 Oeste 1 -- -- 79
2019-04-09 17:00:00 12.2 13 Oeste 32 Oeste 0 -- -- 65
2019-04-09 16:00:00 12.2 7 Oeste 23 Oeste 0 -- -- 66
2019-04-09 15:00:00 11.6 15 Oeste 27 Oeste 0 -- -- 70
2019-04-09 14:00:00 11.2 15 Oeste 27 Oeste 0 -- -- 71
2019-04-09 13:00:00 10.3 17 Oeste 31 Oeste 0 -- -- 73
2019-04-09 12:00:00 9.6 16 Oeste 25 Oeste 0 -- -- 76
2019-04-09 11:00:00 8.7 13 Oeste 22 Sudoeste 0 -- -- 80
2019-04-09 10:00:00 7.6 9 Oeste 23 Sudoeste 0 -- -- 84
2019-04-09 09:00:00 6.7 5 Sudoeste 14 Sudoeste 0 -- -- 84
2019-04-09 08:00:00 2.7 5 Sur 9 Sudoeste 0 -- -- 96
2019-04-09 07:00:00 2.9 5 Sudeste 8 Sudeste 0 -- -- 92
2019-04-09 06:00:00 4.6 4 Sur 14 Sudoeste 0 -- -- 87
2019-04-09 05:00:00 5.3 5 Sur 23 Sudoeste 0 -- -- 87
2019-04-09 04:00:00 5.1 7 Sur 17 Sur 0 -- -- 90
2019-04-09 03:00:00 3.4 4 Sur 9 Sudeste 0 -- -- 96
2019-04-09 02:00:00 3.7 4 Sudeste 12 Sudeste 0 -- -- 96
2019-04-09 01:00:00 3.9 7 Sudeste 9 Sudeste 0 -- -- 95
2019-04-09 00:00:00 4.3 3 Sudoeste 11 Sudeste 0 -- -- 95
2019-04-08 23:00:00 4.4 8 Sudeste 10 Sudeste 0 -- -- 93
2019-04-08 22:00:00 6.7 6 Sur 17 Sudeste 0 -- -- 86
2019-04-08 21:00:00 7.7 7 Nordeste 16 Norte 0 -- -- 83
2019-04-08 20:00:00 9.4 12 Nordeste 22 Nordeste 0 -- -- 78
2019-04-08 19:00:00 10.6 13 Norte 22 Norte 0 -- -- 78
2019-04-08 18:00:00 11.3 8 Sur 15 Sur 0.2 -- -- 77
2019-04-08 17:00:00 9.6 6 Este 15 Nordeste 0.2 -- -- 82
2019-04-08 16:00:00 9.5 6 Norte 12 Norte 0.4 -- -- 84
2019-04-08 15:00:00 8.5 10 Noroeste 19 Noroeste 0.4 -- -- 91
2019-04-08 14:00:00 9.7 6 Noroeste 11 Noroeste 0.2 -- -- 88
2019-04-08 13:00:00 9 2 Sudoeste 7 Sudoeste 1.2 -- -- 91
2019-04-08 12:00:00 8 7 Norte 13 Norte 1.6 -- -- 96
2019-04-08 11:00:00 8.5 4 Nordeste 16 Sudoeste 1.6 -- -- 92
2019-04-08 10:00:00 9.1 8 Sur 19 Sudoeste 0 -- -- 88
2019-04-08 09:00:00 8.5 3 Sudoeste 16 Sur 0.2 -- -- 89
2019-04-08 08:00:00 8.1 3 Sudoeste 14 Sudoeste 1.6 -- -- 91
2019-04-08 07:00:00 7.6 4 Sur 6 Sur 0.8 -- -- 92
2019-04-08 06:00:00 7 0 Calma 6 Este 0.2 -- -- 90
2019-04-08 05:00:00 7 3 Norte 7 Nordeste 0 -- -- 86
2019-04-08 04:00:00 7 3 Sudoeste 14 Norte 0 -- -- 84
2019-04-08 03:00:00 7.3 6 Norte 18 Este 0 -- -- 80
2019-04-08 02:00:00 8.3 9 Sudeste 21 Sudeste 0 -- -- 70
2019-04-08 01:00:00 7.9 3 Sudeste 13 Sur 0 -- -- 73
2019-04-08 00:00:00 8.3 5 Sur 23 Sudoeste 0 -- -- 68
2019-04-07 23:00:00 9 7 Sudoeste 32 Oeste 0 -- -- 63
2019-04-07 22:00:00 9.7 10 Sur 23 Sur 0 -- -- 54
2019-04-07 21:00:00 10 9 Sur 17 Sur 0 -- -- 55
2019-04-07 20:00:00 10.8 7 Sur 23 Sur 0 -- -- 51
2019-04-07 19:00:00 12.6 8 Oeste 16 Oeste 0 -- -- 53
2019-04-07 18:00:00 12.4 5 Sudoeste 14 Oeste 0 -- -- 57
2019-04-07 17:00:00 11.7 7 Oeste 17 Oeste 0 -- -- 57
2019-04-07 16:00:00 10.7 7 Oeste 13 Noroeste 0 -- -- 66
2019-04-07 15:00:00 9.9 9 Oeste 18 Oeste 0 -- -- 69
2019-04-07 14:00:00 8.3 5 Noroeste 22 Oeste 0 -- -- 75
2019-04-07 13:00:00 7.7 10 Oeste 20 Oeste 0 -- -- 79
2019-04-07 12:00:00 6.8 8 Oeste 21 Oeste 0.2 -- -- 82
2019-04-07 11:00:00 5.4 11 Oeste 18 Oeste 0 -- -- 87
2019-04-07 10:00:00 4.9 6 Oeste 10 Oeste 0 -- -- 92
2019-04-07 09:00:00 4.2 3 Noroeste 9 Oeste 0 -- -- 95
2019-04-07 08:00:00 3.9 3 Sur 7 Sudoeste 0 -- -- 96
2019-04-07 07:00:00 4 3 Nordeste 5 Nordeste 0 -- -- 97
2019-04-07 06:00:00 4 4 Noroeste 6 Noroeste 0 -- -- 96
2019-04-07 05:00:00 4 4 Sudeste 5 Sudeste 0 -- -- 96
2019-04-07 04:00:00 3.8 3 Sudeste 5 Sudeste 0 -- -- 96
2019-04-07 03:00:00 4.1 0 Calma 9 Oeste 0 -- -- 95
2019-04-07 02:00:00 4.3 6 Oeste 12 Oeste 0 -- -- 95
2019-04-07 01:00:00 4.3 4 Noroeste 8 Oeste 0 -- -- 96
2019-04-07 00:00:00 4.2 3 Sudeste 10 Sudeste 0 -- -- 95
2019-04-06 23:00:00 4.1 8 Sudeste 12 Sur 2 -- -- 93
2019-04-06 22:00:00 5.4 5 Oeste 26 Sudoeste 0.4 -- -- 89
2019-04-06 21:00:00 6.1 13 Sur 44 Sur 0 -- -- 79
2019-04-06 20:00:00 7.3 11 Sur 20 Sur 0 -- -- 72
2019-04-06 19:00:00 8.6 12 Sur 24 Sur 0.4 -- -- 71
2019-04-06 18:00:00 8.9 13 Oeste 24 Oeste 0 -- -- 71
2019-04-06 17:00:00 9.8 11 Sudoeste 37 Sudoeste 0 -- -- 62
2019-04-06 16:00:00 10.3 16 Sudoeste 29 Sudoeste 0 -- -- 54
2019-04-06 15:00:00 10 15 Sudoeste 46 Sudoeste 0 -- -- 58
2019-04-06 14:00:00 9.8 18 Sudoeste 41 Sudoeste 0 -- -- 60
2019-04-06 13:00:00 8.6 14 Sudoeste 37 Sudoeste 0 -- -- 70
2019-04-06 12:00:00 7.3 14 Oeste 25 Sudoeste 0 -- -- 75
2019-04-06 11:00:00 6 9 Oeste 27 Oeste 0 -- -- 81
2019-04-06 10:00:00 5.2 5 Oeste 12 Oeste 0 -- -- 85
2019-04-06 09:00:00 4.1 3 Sudeste 18 Sudoeste 0 -- -- 91
2019-04-06 08:00:00 3.6 3 Sur 12 Sudoeste 0 -- -- 91
2019-04-06 07:00:00 2.9 5 Sudeste 8 Sudeste 0 -- -- 95
2019-04-06 06:00:00 3.4 3 Este 5 Este 0 -- -- 96
2019-04-06 05:00:00 3.3 3 Sudeste 5 Sudeste 0 -- -- 96
2019-04-06 04:00:00 3.3 2 Sudeste 6 Sudeste 0 -- -- 96
2019-04-06 03:00:00 2.8 4 Este 9 Este 0 -- -- 96
2019-04-06 02:00:00 2.6 6 Sudeste 10 Sudeste 0 -- -- 96
2019-04-06 01:00:00 2.8 7 Sudeste 10 Sudeste 0 -- -- 96
2019-04-06 00:00:00 3.1 4 Sudeste 10 Sudeste 0 -- -- 96
2019-04-05 23:00:00 3.3 8 Sudeste 11 Sudeste 0 -- -- 96
2019-04-05 22:00:00 3.3 5 Sudeste 10 Sudeste 0 -- -- 96
2019-04-05 21:00:00 3.5 6 Este 9 Sudeste 0.2 -- -- 95
2019-04-05 20:00:00 3.2 6 Este 25 Sur 4.2 -- -- 93
2019-04-05 19:00:00 5.4 2 Sudeste 9 Sur 0.6 -- -- 92
2019-04-05 18:00:00 4.9 4 Norte 12 Norte 0 -- -- 96
2019-04-05 17:00:00 3 5 Este 15 Este 4.8 -- -- 95
2019-04-05 16:00:00 4.8 9 Oeste 42 Oeste 2.8 -- -- 85
2019-04-05 15:00:00 9.9 21 Sudeste 38 Sudeste 0 -- -- 67
2019-04-05 14:00:00 9.8 22 Sudeste 40 Sudeste 0 -- -- 68
2019-04-05 13:00:00 8.7 25 Sudeste 46 Sudeste 0 -- -- 73
2019-04-05 12:00:00 7.6 25 Sudeste 49 Sudeste 0 -- -- 75
2019-04-05 11:00:00 7.3 32 Sudeste 49 Sudeste 0 -- -- 72
2019-04-05 10:00:00 7.7 28 Sudeste 46 Sudeste 0 -- -- 69
2019-04-05 09:00:00 6.3 32 Sudeste 50 Sudeste 0 -- -- 68
2019-04-05 08:00:00 6.5 33 Sudeste 55 Sudeste 0 -- -- 63
2019-04-05 07:00:00 6.4 35 Sudeste 55 Sudeste 0 -- -- 61
2019-04-05 06:00:00 6.7 29 Sudeste 48 Este 0 -- -- 56
2019-04-05 05:00:00 7 25 Sudeste 47 Sur 0 -- -- 52
2019-04-05 04:00:00 7.3 22 Sudeste 43 Sudeste 0 -- -- 49
2019-04-05 03:00:00 7.1 17 Sur 41 Sur 0 -- -- 59
2019-04-05 02:00:00 7.3 11 Sur 21 Sur 0 -- -- 57
2019-04-05 01:00:00 6.3 4 Sudoeste 26 Sudoeste 0 -- -- 66
2019-04-05 00:00:00 8.1 10 Sudoeste 26 Sudoeste 0 -- -- 53
2019-04-04 23:00:00 8.4 10 Sur 21 Sudeste 0 -- -- 52
2019-04-04 22:00:00 9.1 11 Sur 24 Sudeste 0 -- -- 50
2019-04-04 21:00:00 9.2 10 Sur 26 Sudeste 0 -- -- 48
2019-04-04 20:00:00 10 15 Sudeste 28 Sudeste 0 -- -- 46
2019-04-04 19:00:00 10.8 11 Sudeste 30 Sudoeste 0 -- -- 43
2019-04-04 18:00:00 11.8 11 Sudoeste 29 Sudoeste 0 -- -- 42
2019-04-04 17:00:00 11.8 16 Oeste 33 Oeste 0 -- -- 43
2019-04-04 16:00:00 11.9 14 Sudoeste 26 Oeste 0 -- -- 43
2019-04-04 15:00:00 9.6 13 Oeste 28 Sudoeste 0 -- -- 52
2019-04-04 14:00:00 8.3 15 Oeste 27 Sudoeste 0 -- -- 55
2019-04-04 13:00:00 7 13 Oeste 25 Oeste 0 -- -- 61
2019-04-04 12:00:00 6.6 10 Oeste 21 Sudoeste 0 -- -- 68
2019-04-04 11:00:00 4.3 4 Sudeste 9 Sur 0 -- -- 78
2019-04-04 10:00:00 2.2 2 Este 9 Sudeste 0 -- -- 83
2019-04-04 09:00:00 0.9 5 Sudeste 8 Sudeste 0 -- -- 93
2019-04-04 08:00:00 0.3 2 Sudeste 5 Sudeste 0 -- -- 94
2019-04-04 07:00:00 0.6 2 Oeste 6 Sudeste 0.2 -- -- 93
2019-04-04 06:00:00 0.3 4 Nordeste 8 Este 0 -- -- 94
2019-04-04 05:00:00 0 4 Sudeste 5 Sudeste 0 -- -- 94
2019-04-04 04:00:00 0.6 0 Calma 5 Sur 0 -- -- 94
2019-04-04 03:00:00 0.6 2 Oeste 12 Sudoeste 0 -- -- 92
2019-04-04 02:00:00 0.7 4 Sur 10 Sur 0 -- -- 95
2019-04-04 01:00:00 0.6 6 Sur 11 Sudoeste 0.2 -- -- 96
2019-04-04 00:00:00 0.5 3 Oeste 8 Sudoeste 0.2 -- -- 96
2019-04-03 23:00:00 0.6 3 Sudoeste 33 Oeste 0.4 -- -- 95
2019-04-03 22:00:00 2.7 13 Oeste 22 Oeste 0 -- -- 80
2019-04-03 21:00:00 2.8 6 Norte 29 Noroeste 0 -- -- 80
2019-04-03 20:00:00 3.9 5 Noroeste 31 Oeste 0 -- -- 73
2019-04-03 19:00:00 4.7 21 Oeste 32 Oeste 0 -- -- 69
2019-04-03 18:00:00 5.3 24 Oeste 39 Oeste 0 -- -- 72
2019-04-03 17:00:00 5.5 15 Oeste 33 Noroeste 0 -- -- 76
2019-04-03 16:00:00 5.2 25 Noroeste 36 Noroeste 0 -- -- 75
2019-04-03 15:00:00 5.2 26 Noroeste 42 Noroeste 0 -- -- 83
2019-04-03 14:00:00 7 11 Norte 24 Noroeste 0 -- -- 75
2019-04-03 13:00:00 5.8 13 Noroeste 27 Noroeste 0 -- -- 77
2019-04-03 12:00:00 4.8 16 Noroeste 24 Norte 0 -- -- 83
2019-04-03 11:00:00 4.5 16 Noroeste 26 Noroeste 0.2 -- -- 89
2019-04-03 10:00:00 4.6 6 Noroeste 16 Noroeste 0 -- -- 92
2019-04-03 09:00:00 4.4 6 Noroeste 17 Noroeste 0 -- -- 92
2019-04-03 08:00:00 4.7 7 Noroeste 13 Noroeste 0.4 -- -- 95
2019-04-03 07:00:00 4.8 0 Calma 9 Noroeste 0.6 -- -- 94
2019-04-03 06:00:00 5 4 Noroeste 10 Noroeste 0 -- -- 92
2019-04-03 05:00:00 4.9 5 Sudeste 14 Noroeste 0 -- -- 95
2019-04-03 04:00:00 5.3 13 Noroeste 20 Noroeste 0.2 -- -- 96
2019-04-03 03:00:00 5.6 2 Nordeste 10 Noroeste 0.4 -- -- 96
2019-04-03 02:00:00 -- 9 Norte 15 Noroeste 0 -- -- --
2019-04-03 01:00:00 6.7 3 Noroeste 9 Noroeste 0.4 -- -- 94
2019-04-03 00:00:00 6.8 0 Calma 23 Noroeste 1.2 -- -- 93
2019-04-02 23:00:00 8 9 Noroeste 19 Noroeste 0 -- -- 87
2019-04-02 22:00:00 8.2 5 Noroeste 16 Noroeste 0 -- -- 82
2019-04-02 21:00:00 8.5 9 Noroeste 20 Noroeste 0 -- -- 81
2019-04-02 20:00:00 9.2 14 Noroeste 26 Noroeste 0 -- -- 78
2019-04-02 19:00:00 10.7 12 Norte 23 Nordeste 0 -- -- 75
2019-04-02 18:00:00 13.3 11 Nordeste 23 Noroeste 0 -- -- 66
2019-04-02 17:00:00 13.8 13 Noroeste 23 Noroeste 0 -- -- 59
2019-04-02 16:00:00 14.2 8 Noroeste 18 Noroeste 0 -- -- 55
2019-04-02 15:00:00 13.8 10 Oeste 18 Noroeste 0 -- -- 57
2019-04-02 14:00:00 12.4 9 Norte 16 Noroeste 0 -- -- 66
2019-04-02 13:00:00 11.1 9 Norte 18 Noroeste 0 -- -- 69
2019-04-02 12:00:00 10.2 5 Oeste 13 Oeste 0 -- -- 85
2019-04-02 11:00:00 9.7 5 Oeste 8 Oeste 0 -- -- 91
2019-04-02 10:00:00 8.7 3 Norte 4 Norte 0 -- -- 94
2019-04-02 09:00:00 6.3 3 Este 9 Sudeste 0 -- -- 97
2019-04-02 08:00:00 5.8 4 Sudeste 5 Sudeste 0 -- -- 94
2019-04-02 07:00:00 6.7 0 Calma 8 Oeste 0 -- -- 97
2019-04-02 06:00:00 7.4 3 Sur 6 Sudeste 0 -- -- 96
2019-04-02 05:00:00 6.5 3 Sudeste 9 Sudeste 0 -- -- 96
2019-04-02 04:00:00 5.6 5 Sudeste 8 Sudeste 0 -- -- 93
2019-04-02 03:00:00 7.7 5 Sudeste 8 Sudeste 0 -- -- 91
2019-04-02 02:00:00 7.2 5 Sudeste 11 Sudeste 0 -- -- 93
2019-04-02 01:00:00 7 10 Sudeste 13 Sudeste 0 -- -- 89
2019-04-02 00:00:00 8.5 5 Sudeste 9 Sudeste 0 -- -- 88
2019-04-01 23:00:00 8.5 6 Sudeste 10 Sudeste 0 -- -- 85
2019-04-01 22:00:00 9.5 4 Sudeste 8 Sudeste 0 -- -- 83
2019-04-01 21:00:00 10.6 3 Este 8 Sudeste 0 -- -- 78
2019-04-01 20:00:00 11.8 4 Nordeste 10 Norte 0 -- -- 75
2019-04-01 19:00:00 12.8 3 Norte 10 Sur 0 -- -- 71
2019-04-01 18:00:00 12.3 4 Sudeste 12 Sudeste 0 -- -- 72
2019-04-01 17:00:00 11.9 8 Sudeste 19 Sur 0 -- -- 73
2019-04-01 16:00:00 12 8 Sur 21 Sur 0 -- -- 72
2019-04-01 15:00:00 11.8 10 Este 22 Sudeste 0 -- -- 72
2019-04-01 14:00:00 11.2 9 Sudeste 35 Este 0 -- -- 75
2019-04-01 13:00:00 11.5 18 Sudeste 34 Sudeste 0 -- -- 74
2019-04-01 12:00:00 11.1 10 Este 28 Este 0 -- -- 79
2019-04-01 11:00:00 9.7 15 Este 30 Este 0 -- -- 82
2019-04-01 10:00:00 8.8 9 Este 21 Este 0 -- -- 83
2019-04-01 09:00:00 7.8 9 Nordeste 19 Sudeste 0 -- -- 85
2019-04-01 08:00:00 7.5 5 Noroeste 24 Este 0 -- -- 87
2019-04-01 07:00:00 7.7 10 Nordeste 28 Este 0 -- -- 85
2019-04-01 06:00:00 7.1 6 Nordeste 19 Sudeste 0 -- -- 89
2019-04-01 05:00:00 6.4 8 Nordeste 17 Nordeste 0 -- -- 92
2019-04-01 04:00:00 6.5 4 Sudeste 9 Sudeste 0.2 -- -- 93
2019-04-01 03:00:00 6.6 6 Sudeste 9 Sudeste 0.2 -- -- 92
2019-04-01 02:00:00 7.3 6 Sudeste 26 Sudeste 1.2 -- -- 85
2019-04-01 01:00:00 8 14 Sudeste 42 Sudeste 0.4 -- -- 80
2019-04-01 00:00:00 10.2 27 Sudeste 49 Sudeste 0 -- -- 63
2019-03-31 23:00:00 10.6 29 Sudeste 48 Sudeste 0 -- -- 59
2019-03-31 22:00:00 11 19 Sudeste 35 Este 0 -- -- 61
2019-03-31 21:00:00 11.6 22 Sudeste 37 Sudeste 0 -- -- 55
2019-03-31 20:00:00 12.4 23 Sudeste 35 Sudeste 0 -- -- 49
2019-03-31 19:00:00 14.2 21 Sudeste 37 Sudeste 0 -- -- 51
2019-03-31 18:00:00 15.5 22 Sudeste 33 Sudeste 0 -- -- 46
2019-03-31 17:00:00 16.4 15 Sudeste 33 Este 0 -- -- 43
2019-03-31 16:00:00 16.9 14 Sudeste 28 Sudeste 0 -- -- 44
2019-03-31 15:00:00 16 12 Sudeste 24 Este 0 -- -- 45
2019-03-31 14:00:00 15.2 12 Sudeste 25 Sudeste 0 -- -- 50
2019-03-31 13:00:00 14.7 17 Sudeste 27 Sudeste 0 -- -- 51
2019-03-31 12:00:00 13.8 12 Este 28 Sudeste 0 -- -- 53
2019-03-31 11:00:00 12 9 Este 24 Sur 0 -- -- 60
2019-03-31 10:00:00 10.2 5 Norte 22 Nordeste 0 -- -- 66
2019-03-31 09:00:00 8.2 9 Nordeste 27 Este 0 -- -- 71
2019-03-31 08:00:00 6.7 14 Este 30 Este 0 -- -- 75
2019-03-31 07:00:00 7.2 11 Este 40 Sudeste 0 -- -- 73
2019-03-31 06:00:00 7.9 26 Sudeste 42 Este 0 -- -- 69
2019-03-31 05:00:00 8.3 32 Sudeste 49 Sudeste 0 -- -- 63
2019-03-31 03:00:00 9.8 30 Sudeste 45 Sudeste 0 -- -- 53
2019-03-31 01:00:00 10.3 28 Sudeste 45 Sudeste 0 -- -- 51
2019-03-31 00:00:00 10.6 24 Sudeste 39 Sudeste 0 -- -- 49
2019-03-30 23:00:00 11.5 20 Sudeste 32 Sudeste 0 -- -- 46
2019-03-30 22:00:00 11.1 16 Este 24 Sudeste 0 -- -- 47
2019-03-30 21:00:00 11.3 11 Sudeste 24 Sudeste 0 -- -- 48
2019-03-30 20:00:00 12.5 15 Sudeste 27 Sudeste 0 -- -- 46
2019-03-30 19:00:00 14.7 17 Sudeste 30 Sudeste 0 -- -- 42
2019-03-30 18:00:00 16 15 Sudeste 29 Sudeste 0 -- -- 41
2019-03-30 17:00:00 16.7 18 Sudeste 30 Sudeste 0 -- -- 41
2019-03-30 16:00:00 17.1 16 Sudeste 30 Sudeste 0 -- -- 40
2019-03-30 15:00:00 17 17 Sudeste 34 Este 0 -- -- 43
2019-03-30 14:00:00 16.3 21 Sudeste 34 Sudeste 0 -- -- 43
2019-03-30 13:00:00 15.4 23 Sudeste 44 Sudeste 0 -- -- 45
2019-03-30 12:00:00 13.9 26 Este 48 Sudeste 0 -- -- 48
2019-03-30 11:00:00 12.3 37 Sudeste 59 Sudeste 0 -- -- 51
2019-03-30 10:00:00 10.5 39 Sudeste 61 Sudeste 0 -- -- 55
2019-03-30 09:00:00 8.8 38 Sudeste 63 Sudeste 0 -- -- 59
2019-03-30 08:00:00 7.2 36 Sudeste 60 Sudeste 0 -- -- 64
2019-03-30 07:00:00 6.6 12 Este 46 Este 0 -- -- 63
2019-03-30 06:00:00 6.8 21 Sudeste 64 Sudeste 0 -- -- 61
2019-03-30 05:00:00 7.5 42 Sudeste 65 Sudeste 0 -- -- 58
2019-03-30 04:00:00 8 42 Sudeste 69 Sudeste 0 -- -- 57
2019-03-30 03:00:00 8.7 37 Sudeste 67 Sudeste 0 -- -- 58
2019-03-30 02:00:00 10.1 42 Sudeste 68 Sur 0 -- -- 53
2019-03-30 01:00:00 11.1 41 Sudeste 71 Sudeste 0 -- -- 49
2019-03-30 00:00:00 11.3 44 Sudeste 67 Sudeste 0 -- -- 51
2019-03-29 23:00:00 11.9 39 Sudeste 65 Sudeste 0 -- -- 50
2019-03-29 22:00:00 12.5 36 Sudeste 60 Sudeste 0 -- -- 46
2019-03-29 21:00:00 13 32 Sudeste 52 Sudeste 0 -- -- 42
2019-03-29 20:00:00 13.8 31 Sudeste 50 Sudeste 0 -- -- 39
2019-03-29 19:00:00 15 26 Sudeste 48 Sudeste 0 -- -- 34
2019-03-29 18:00:00 16.2 28 Sudeste 46 Sudeste 0 -- -- 34
2019-03-29 17:00:00 17 25 Sudeste 48 Sudeste 0 -- -- 34
2019-03-29 16:00:00 17.1 27 Sudeste 47 Sudeste 0 -- -- 34
2019-03-29 15:00:00 16.8 22 Sudeste 41 Sudeste 0 -- -- 38
2019-03-29 14:00:00 16.1 28 Sudeste 41 Sudeste 0 -- -- 41
2019-03-29 13:00:00 15.3 23 Sudeste 48 Sudeste 0 -- -- 42
2019-03-29 12:00:00 13.8 31 Sudeste 52 Sudeste 0 -- -- 44
2019-03-29 11:00:00 12.4 38 Sudeste 58 Sudeste 0 -- -- 48
2019-03-29 10:00:00 11.2 10 Este 47 Este 0 -- -- 53
2019-03-29 09:00:00 9.1 12 Nordeste 34 Sudeste 0 -- -- 58
2019-03-29 08:00:00 5.5 5 Nordeste 14 Noroeste 0 -- -- 70
2019-03-29 07:00:00 1.9 7 Sudoeste 12 Oeste 0 -- -- 93
2019-03-29 06:00:00 0.8 4 Sur 7 Este 0 -- -- 95
2019-03-29 05:00:00 0.4 5 Sudeste 12 Sudeste 0 -- -- 93
2019-03-29 04:00:00 0.6 8 Sudeste 10 Sudeste 0 -- -- 92
2019-03-29 03:00:00 0.9 8 Sudeste 11 Sudeste 0 -- -- 90
2019-03-29 02:00:00 1.4 9 Sudeste 13 Sudeste 0 -- -- 87
2019-03-29 01:00:00 2 9 Sudeste 11 Sudeste 0 -- -- 86
2019-03-29 00:00:00 2.2 9 Sudeste 14 Sudeste 0 -- -- 83
2019-03-28 23:00:00 2.8 9 Sudeste 13 Sudeste 0 -- -- 79
2019-03-28 22:00:00 4 7 Sudeste 11 Sudeste 0 -- -- 73
2019-03-28 21:00:00 4.9 4 Este 12 Sudeste 0 -- -- 67
2019-03-28 20:00:00 7.3 6 Este 16 Norte 0 -- -- 59
2019-03-28 19:00:00 10.6 10 Nordeste 21 Nordeste 0 -- -- 52
2019-03-28 18:00:00 12.8 10 Nordeste 26 Nordeste 0 -- -- 49
2019-03-28 17:00:00 13.7 15 Nordeste 23 Norte 0 -- -- 49
2019-03-28 16:00:00 14.1 12 Nordeste 24 Nordeste 0 -- -- 48
2019-03-28 15:00:00 14.5 10 Norte 18 Norte 0 -- -- 47
2019-03-28 14:00:00 13.6 8 Nordeste 21 Nordeste 0 -- -- 51
2019-03-28 13:00:00 12.8 9 Nordeste 17 Norte 0 -- -- 53
2019-03-28 12:00:00 11.7 7 Norte 15 Oeste 0 -- -- 60
2019-03-28 11:00:00 9.5 6 Oeste 14 Noroeste 0 -- -- 72
2019-03-28 10:00:00 7.9 5 Sudoeste 11 Sudoeste 0 -- -- 84
2019-03-28 09:00:00 5.2 2 Sudoeste 5 Oeste 0 -- -- 91
2019-03-28 08:00:00 4.8 2 Sudoeste 6 Sudoeste 0 -- -- 93
2019-03-28 07:00:00 4.4 2 Sudoeste 7 Oeste 0 -- -- 93
2019-03-28 06:00:00 4.1 3 Sur 6 Sudoeste 0 -- -- 93
2019-03-28 05:00:00 4 0 Calma 4 Sur 0 -- -- 90
2019-03-28 04:00:00 4.9 0 Calma 5 Oeste 0 -- -- 87
2019-03-28 03:00:00 4.8 4 Sudoeste 11 Oeste 0 -- -- 88
2019-03-28 02:00:00 4.5 5 Sudoeste 16 Sur 0 -- -- 91
2019-03-28 01:00:00 2.7 5 Sudeste 8 Sur 0 -- -- 91
2019-03-28 00:00:00 3.1 5 Sur 9 Sudoeste 0 -- -- 89
2019-03-27 23:00:00 3 4 Sudeste 13 Oeste 0 -- -- 84
2019-03-27 22:00:00 3.4 5 Sudeste 17 Norte 0 -- -- 83
2019-03-27 21:00:00 4.8 13 Noroeste 30 Noroeste 0 -- -- 79
2019-03-27 20:00:00 6.1 20 Noroeste 30 Noroeste 0 -- -- 63
2019-03-27 19:00:00 8.5 22 Noroeste 33 Noroeste 0 -- -- 47
2019-03-27 18:00:00 11.4 13 Noroeste 24 Norte 0 -- -- 40
2019-03-27 17:00:00 12.2 13 Nordeste 28 Norte 0 -- -- 30
2019-03-27 16:00:00 12.9 16 Norte 34 Nordeste 0 -- -- 29
2019-03-27 15:00:00 13.6 14 Norte 25 Noroeste 0 -- -- 32
2019-03-27 14:00:00 13.4 12 Noroeste 22 Este 0 -- -- 41
2019-03-27 13:00:00 12.7 9 Norte 31 Nordeste 0 -- -- 42
2019-03-27 12:00:00 11.1 10 Nordeste 20 Este 0 -- -- 39
2019-03-27 11:00:00 9.6 5 Oeste 12 Sudoeste 0 -- -- 58
2019-03-27 10:00:00 7.5 6 Oeste 10 Sudoeste 0 -- -- 67
2019-03-27 09:00:00 6.1 3 Oeste 11 Sudeste 0 -- -- 72
2019-03-27 08:00:00 0.9 9 Sudeste 13 Sudeste 0 -- -- 87
2019-03-27 07:00:00 -0.8 9 Sudeste 12 Sudeste 0 -- -- 89
2019-03-27 06:00:00 -0.7 8 Sudeste 11 Sudeste 0 -- -- 90
2019-03-27 05:00:00 0.1 9 Sudeste 15 Sudeste 0 -- -- 92
2019-03-27 04:00:00 0.2 9 Sudeste 13 Sudeste 0 -- -- 92
2019-03-27 03:00:00 0.4 9 Sudeste 13 Sudeste 0 -- -- 90
2019-03-27 02:00:00 1 9 Sudeste 12 Sudeste 0 -- -- 89
2019-03-27 01:00:00 1.7 8 Sudeste 13 Sudeste 0 -- -- 87
2019-03-27 00:00:00 2.1 7 Sudeste 15 Sudeste 0 -- -- 86
2019-03-26 23:00:00 2.1 7 Sudeste 12 Sudeste 0 -- -- 84
2019-03-26 22:00:00 3 8 Sudeste 11 Sur 0 -- -- 80
2019-03-26 21:00:00 3.9 4 Sur 10 Sudoeste 0 -- -- 69
2019-03-26 20:00:00 5.7 5 Oeste 23 Nordeste 0 -- -- 62
2019-03-26 19:00:00 8.4 17 Nordeste 33 Nordeste 0 -- -- 50
2019-03-26 18:00:00 9.8 21 Nordeste 38 Nordeste 0 -- -- 39
2019-03-26 17:00:00 11.2 21 Nordeste 36 Nordeste 0 -- -- 35
2019-03-26 16:00:00 12.7 16 Nordeste 32 Nordeste 0 -- -- 33
2019-03-26 15:00:00 13.3 18 Nordeste 31 Norte 0 -- -- 28
2019-03-26 14:00:00 13.2 18 Norte 35 Norte 0 -- -- 33
2019-03-26 13:00:00 12.1 17 Norte 35 Norte 0 -- -- 40
2019-03-26 12:00:00 10.5 16 Norte 29 Norte 0 -- -- 46
2019-03-26 11:00:00 9.7 15 Nordeste 30 Nordeste 0 -- -- 45
2019-03-26 10:00:00 7.5 8 Oeste 17 Sudoeste 0 -- -- 55
2019-03-26 09:00:00 5.8 5 Sudoeste 13 Sudoeste 0 -- -- 70
2019-03-26 08:00:00 1.9 5 Sur 13 Sudeste 0 -- -- 80
2019-03-26 07:00:00 0.8 9 Sudeste 14 Este 0 -- -- 81
2019-03-26 06:00:00 2.7 6 Norte 18 Nordeste 0 -- -- 77
2019-03-26 05:00:00 3.7 13 Nordeste 23 Este 0 -- -- 76
2019-03-26 04:00:00 3.4 6 Norte 16 Norte 0 -- -- 79
2019-03-26 03:00:00 5.4 4 Nordeste 21 Norte 0 -- -- 75
2019-03-26 02:00:00 5.9 6 Norte 16 Norte 0 -- -- 77
2019-03-26 01:00:00 6.2 9 Norte 19 Norte 0 -- -- 80
2019-03-26 00:00:00 5.3 6 Oeste 18 Oeste 0 -- -- 86
2019-03-25 23:00:00 5.4 10 Oeste 19 Noroeste 0 -- -- 79
2019-03-25 22:00:00 5.7 12 Norte 22 Norte 0 -- -- 74
2019-03-25 21:00:00 5.5 13 Noroeste 22 Noroeste 0 -- -- 74
2019-03-25 20:00:00 5.8 17 Noroeste 28 Noroeste 0 -- -- 65
2019-03-25 19:00:00 7.9 13 Norte 28 Noroeste 0 -- -- 66
2019-03-25 18:00:00 8.2 15 Nordeste 32 Norte 0 -- -- 66
2019-03-25 17:00:00 8.9 20 Nordeste 35 Nordeste 0 -- -- 64
2019-03-25 16:00:00 10.4 17 Nordeste 33 Norte 0 -- -- 59
2019-03-25 15:00:00 10.7 17 Nordeste 28 Nordeste 0 -- -- 55
2019-03-25 14:00:00 10.5 16 Norte 37 Norte 0 -- -- 59
2019-03-25 13:00:00 9.8 14 Nordeste 27 Norte 0 -- -- 64
2019-03-25 12:00:00 9 14 Norte 27 Norte 0 -- -- 64
2019-03-25 11:00:00 8 16 Norte 27 Norte 0 -- -- 71
2019-03-25 10:00:00 7.9 15 Norte 25 Norte 0 -- -- 71
2019-03-25 09:00:00 7.1 15 Noroeste 24 Noroeste 0 -- -- 84
2019-03-25 08:00:00 7.2 11 Noroeste 18 Noroeste 0 -- -- 89
2019-03-25 07:00:00 6.6 5 Oeste 11 Oeste 0 -- -- 92
2019-03-25 06:00:00 5.6 3 Sudoeste 6 Sudoeste 0 -- -- 95
2019-03-25 05:00:00 4.8 0 Calma 8 Sudoeste 0 -- -- 93
2019-03-25 04:00:00 5.7 4 Sudoeste 9 Oeste 0 -- -- 92
2019-03-25 03:00:00 5.9 3 Sur 9 Oeste 0 -- -- 92
2019-03-25 02:00:00 3.8 4 Sur 9 Sur 0 -- -- 91
2019-03-25 01:00:00 4.2 5 Sudeste 10 Sudeste 0 -- -- 80
2019-03-25 00:00:00 4.9 5 Sudeste 10 Sudeste 0 -- -- 75